Time;durP1;ratioP1;P1;durP2;ratioP2;P2;SDS_P1;SDS_P2;PMS_P1;PMS_P2;Temp;Humidity;BMP_temperature;BMP_pressure;BME280_temperature;BME280_humidity;BME280_pressure;Samples;Min_cycle;Max_cycle;Signal;HPM_P1;HPM_P2
2022/12/25 00:01:16;;;;;;;2.50;1.10;;;13.20;47.60;;;;;;5014576;28;20930;-73
2022/12/25 00:03:46;;;;;;;2.60;1.20;;;13.10;47.70;;;;;;5006480;28;20517;-73
2022/12/25 00:06:12;;;;;;;2.50;1.10;;;13.30;47.30;;;;;;5013871;28;20919;-72
2022/12/25 00:08:39;;;;;;;2.53;1.10;;;13.10;47.30;;;;;;5013367;28;20451;-73
2022/12/25 00:11:07;;;;;;;2.60;1.20;;;13.10;47.90;;;;;;5013416;28;20428;-73
2022/12/25 00:13:33;;;;;;;2.60;1.20;;;13.10;47.90;;;;;;5011371;28;20440;-73
2022/12/25 00:16:04;;;;;;;2.50;1.10;;;13.20;47.10;;;;;;5009681;28;20440;-73
2022/12/25 00:18:29;;;;;;;2.60;1.30;;;13.30;46.80;;;;;;5011277;28;20535;-73
2022/12/25 00:20:59;;;;;;;2.40;1.10;;;13.10;47.20;;;;;;5013852;28;20444;-73
2022/12/25 00:23:26;;;;;;;2.57;1.30;;;13.10;47.20;;;;;;5010855;28;20185;-72
2022/12/25 00:25:52;;;;;;;2.60;1.30;;;13.00;46.90;;;;;;5012161;28;20471;-73
2022/12/25 00:28:18;;;;;;;2.40;1.10;;;13.10;47.70;;;;;;5014014;28;20423;-72
2022/12/25 00:30:43;;;;;;;3.77;1.40;;;13.00;46.80;;;;;;5014013;28;20408;-71
2022/12/25 00:33:09;;;;;;;2.50;1.20;;;13.30;46.40;;;;;;5013716;28;20420;-73
2022/12/25 00:35:35;;;;;;;2.40;1.00;;;13.70;45.90;;;;;;5006995;28;20194;-72
2022/12/25 00:38:00;;;;;;;2.40;1.00;;;13.60;44.70;;;;;;5012303;28;20189;-72
2022/12/25 00:40:26;;;;;;;2.40;1.00;;;13.60;44.60;;;;;;5013651;28;20223;-73
2022/12/25 00:42:52;;;;;;;2.50;1.10;;;13.70;44.80;;;;;;5011382;28;20305;-73
2022/12/25 00:45:17;;;;;;;2.50;1.10;;;13.90;44.10;;;;;;5005195;28;20225;-72
2022/12/25 00:47:43;;;;;;;2.50;1.10;;;13.90;43.90;;;;;;5010453;28;20277;-72
2022/12/25 00:50:09;;;;;;;2.50;1.07;;;13.70;44.90;;;;;;5011791;28;20204;-72
2022/12/25 00:52:34;;;;;;;2.80;1.20;;;13.60;45.40;;;;;;5013373;28;20220;-72
2022/12/25 00:55:00;;;;;;;2.90;1.40;;;13.70;46.20;;;;;;5009910;28;20452;-73
2022/12/25 00:57:25;;;;;;;2.67;1.23;;;13.70;45.60;;;;;;5008407;28;20265;-72
2022/12/25 00:59:51;;;;;;;2.53;1.10;;;13.70;46.20;;;;;;5003302;28;20208;-72
2022/12/25 01:02:22;;;;;;;2.50;1.10;;;13.50;46.50;;;;;;5009299;28;20200;-73
2022/12/25 01:04:49;;;;;;;2.57;1.10;;;14.00;46.40;;;;;;5011843;28;20209;-72
2022/12/25 01:07:15;;;;;;;2.53;1.20;;;13.50;46.00;;;;;;5006325;28;20509;-72
2022/12/25 01:12:27;;;;;;;2.50;1.10;;;13.20;48.10;;;;;;5004833;28;20396;-72
2022/12/25 01:14:52;;;;;;;2.50;1.10;;;13.40;47.40;;;;;;5002740;28;20518;-69
2022/12/25 01:17:18;;;;;;;2.57;1.10;;;13.40;47.20;;;;;;5004829;28;20653;-70
2022/12/25 01:19:44;;;;;;;2.50;1.10;;;13.30;47.50;;;;;;5001942;28;20228;-70
2022/12/25 01:22:09;;;;;;;2.50;1.10;;;13.30;47.20;;;;;;5012041;28;20177;-72
2022/12/25 01:24:35;;;;;;;2.50;1.10;;;13.10;47.60;;;;;;5011839;28;20613;-70
2022/12/25 01:27:01;;;;;;;2.50;1.10;;;13.10;47.90;;;;;;5000630;28;20547;-70
2022/12/25 01:29:26;;;;;;;2.53;1.17;;;13.10;49.50;;;;;;5003902;28;20207;-70
2022/12/25 01:31:52;;;;;;;2.60;1.20;;;13.00;49.50;;;;;;5011851;28;20184;-71
2022/12/25 01:34:17;;;;;;;2.50;1.00;;;12.70;49.40;;;;;;5010529;28;20223;-70
2022/12/25 01:36:43;;;;;;;2.63;1.20;;;13.00;49.10;;;;;;5011710;28;20268;-70
2022/12/25 01:39:08;;;;;;;2.50;1.00;;;13.10;48.40;;;;;;5007970;28;20236;-73
2022/12/25 01:41:34;;;;;;;2.70;1.20;;;13.10;47.70;;;;;;5008277;28;20182;-71
2022/12/25 01:44:15;;;;;;;2.60;1.10;;;13.40;48.20;;;;;;5009047;28;20734;-70
2022/12/25 01:46:42;;;;;;;2.73;1.27;;;13.00;47.60;;;;;;5004925;28;20180;-70
2022/12/25 01:49:10;;;;;;;2.60;1.10;;;13.50;48.30;;;;;;5010212;28;20951;-70
2022/12/25 01:51:50;;;;;;;2.50;1.00;;;13.20;47.00;;;;;;5009010;28;20581;-70
2022/12/25 01:54:30;;;;;;;2.50;1.10;;;13.10;47.20;;;;;;5009242;28;20432;-70
2022/12/25 01:56:59;;;;;;;2.60;1.10;;;13.10;47.40;;;;;;5004491;28;20526;-70
2022/12/25 01:59:26;;;;;;;2.60;1.20;;;13.30;46.80;;;;;;5009564;28;20432;-71
2022/12/25 02:01:52;;;;;;;2.60;1.20;;;13.90;45.50;;;;;;4998864;28;20778;-70
2022/12/25 02:04:39;;;;;;;2.50;1.03;;;13.90;45.90;;;;;;5010990;28;20614;-70
2022/12/25 02:07:20;;;;;;;2.50;1.10;;;13.80;45.50;;;;;;5010048;28;20523;-70
2022/12/25 02:09:47;;;;;;;2.60;1.10;;;13.60;45.80;;;;;;5009104;28;20453;-70
2022/12/25 02:12:22;;;;;;;2.60;1.10;;;13.90;45.90;;;;;;5007145;28;20512;-71
2022/12/25 02:14:50;;;;;;;2.60;1.10;;;13.50;45.80;;;;;;5009485;28;20396;-70
2022/12/25 02:17:37;;;;;;;2.60;1.10;;;13.80;44.90;;;;;;5008482;28;20790;-70
2022/12/25 02:20:15;;;;;;;2.60;1.10;;;13.40;45.50;;;;;;5010932;28;20452;-73
2022/12/25 02:23:07;;;;;;;2.70;1.30;;;13.00;47.40;;;;;;5003334;28;20485;-70
2022/12/25 02:25:48;;;;;;;2.70;1.20;;;12.70;48.60;;;;;;5002811;28;20505;-71
2022/12/25 02:28:32;;;;;;;3.67;1.50;;;12.40;50.30;;;;;;5009722;28;20431;-70
2022/12/25 02:31:09;;;;;;;3.43;1.20;;;12.50;50.20;;;;;;5001229;28;20436;-70
2022/12/25 02:34:03;;;;;;;2.43;1.10;;;12.80;49.00;;;;;;5000807;28;20432;-70
2022/12/25 02:36:51;;;;;;;2.50;1.10;;;12.90;48.00;;;;;;5009704;28;20935;-70
2022/12/25 03:07:50;;;;;;;3.67;1.42;;;12.90;46.90;;;;;;5008532;28;20431;-71
2022/12/25 03:13:10;;;;;;;2.80;1.50;;;12.80;47.40;;;;;;5011504;28;20498;-73
2022/12/25 03:18:24;;;;;;;2.70;1.33;;;12.80;47.70;;;;;;5010084;28;20456;-72
2022/12/25 03:31:10;;;;;;;2.30;1.20;;;12.40;49.50;;;;;;5010904;28;20581;-70
2022/12/25 03:32:09;;;;;;;2.40;1.23;;;12.30;50.50;;;;;;5012074;28;20416;-71
2022/12/25 03:35:22;;;;;;;2.30;1.20;;;12.40;49.50;;;;;;4997600;28;20664;-70
2022/12/25 04:37:11;;;;;;;2.40;1.20;;;12.40;49.30;;;;;;5007671;28;20436;-70
2022/12/25 04:39:37;;;;;;;2.03;1.10;;;12.70;50.20;;;;;;5011197;28;20457;-71
2022/12/25 04:42:03;;;;;;;2.30;1.40;;;12.60;48.50;;;;;;5012755;28;20236;-72
2022/12/25 04:44:28;;;;;;;2.17;1.17;;;12.70;48.00;;;;;;5012831;28;20208;-71
2022/12/25 04:46:54;;;;;;;3.33;1.70;;;12.70;48.20;;;;;;5005276;28;20177;-71
2022/12/25 04:49:19;;;;;;;2.60;1.60;;;12.60;48.30;;;;;;5007897;28;20210;-70
2022/12/25 04:51:45;;;;;;;2.40;1.40;;;12.70;48.90;;;;;;5009777;28;20263;-71
2022/12/25 04:54:11;;;;;;;2.50;1.20;;;12.50;48.80;;;;;;5012757;28;20186;-70
2022/12/25 04:56:36;;;;;;;2.00;1.00;;;12.60;49.10;;;;;;5009810;28;20185;-71
2022/12/25 04:59:02;;;;;;;2.10;1.20;;;12.40;49.60;;;;;;5000448;28;20709;-71
2022/12/25 05:01:28;;;;;;;2.13;1.20;;;12.10;51.40;;;;;;5009818;28;20189;-71
2022/12/25 05:03:53;;;;;;;2.87;1.60;;;12.20;50.60;;;;;;5012130;28;20187;-71
2022/12/25 05:06:19;;;;;;;2.30;1.30;;;11.80;52.40;;;;;;5012746;28;20205;-71
2022/12/25 05:08:45;;;;;;;2.07;1.10;;;11.70;53.30;;;;;;5001462;28;20205;-70
2022/12/25 05:11:14;;;;;;;2.10;1.20;;;12.10;52.20;;;;;;5012266;28;20423;-71
2022/12/25 05:13:40;;;;;;;3.30;1.77;;;12.30;50.70;;;;;;5010572;28;20189;-71
2022/12/25 05:16:08;;;;;;;2.60;1.63;;;12.40;50.80;;;;;;5012058;28;20440;-71
2022/12/25 05:18:34;;;;;;;2.10;1.20;;;12.00;52.00;;;;;;5010398;28;20522;-72
2022/12/25 05:20:59;;;;;;;2.07;1.10;;;12.10;52.10;;;;;;5009284;28;20519;-70
2022/12/25 05:23:25;;;;;;;2.20;1.20;;;12.50;50.40;;;;;;5010563;28;20449;-70
2022/12/25 05:25:51;;;;;;;2.10;1.10;;;12.60;50.00;;;;;;5011483;28;22209;-71
2022/12/25 05:28:17;;;;;;;2.70;1.50;;;12.60;49.60;;;;;;5011203;28;20640;-70
2022/12/25 05:30:42;;;;;;;2.37;1.40;;;12.50;50.30;;;;;;5014879;28;20215;-75
2022/12/25 05:33:08;;;;;;;2.10;1.10;;;12.40;50.80;;;;;;5018115;28;20416;-70
2022/12/25 05:35:36;;;;;;;2.30;1.30;;;12.40;50.80;;;;;;5006068;28;20176;-70
2022/12/25 05:38:02;;;;;;;2.40;1.30;;;12.40;50.80;;;;;;5012269;28;20235;-72
2022/12/25 05:40:28;;;;;;;2.20;1.30;;;12.50;50.20;;;;;;5011870;28;20436;-71
2022/12/25 05:42:53;;;;;;;2.20;1.30;;;12.50;50.00;;;;;;5003467;28;20649;-70
2022/12/25 05:45:19;;;;;;;2.00;1.13;;;12.40;50.70;;;;;;5010530;28;20217;-71
2022/12/25 05:47:44;;;;;;;2.20;1.30;;;12.20;50.80;;;;;;5011895;28;20181;-70
2022/12/25 05:50:10;;;;;;;2.73;1.77;;;12.10;51.80;;;;;;5011841;28;20224;-70
2022/12/25 05:52:36;;;;;;;2.07;1.17;;;12.30;50.70;;;;;;5003641;28;20185;-70
2022/12/25 05:55:01;;;;;;;2.10;1.20;;;12.50;50.90;;;;;;5009437;28;20617;-71
2022/12/25 05:57:28;;;;;;;2.00;1.10;;;12.50;50.20;;;;;;5011761;28;20188;-71
2022/12/25 05:59:54;;;;;;;2.10;1.27;;;12.40;50.20;;;;;;5011901;28;20255;-70
2022/12/25 06:02:19;;;;;;;2.00;1.03;;;12.40;50.20;;;;;;5010631;28;20174;-71
2022/12/25 06:04:45;;;;;;;2.03;1.10;;;12.60;49.60;;;;;;5006948;28;20251;-71
2022/12/25 06:07:11;;;;;;;4.00;1.40;;;12.80;48.90;;;;;;5003750;28;20173;-72
2022/12/25 06:09:36;;;;;;;2.00;1.10;;;12.70;48.60;;;;;;5011667;28;20185;-71
2022/12/25 06:12:02;;;;;;;2.47;1.50;;;12.70;49.40;;;;;;5011469;28;20496;-71
2022/12/25 06:14:28;;;;;;;2.77;1.37;;;12.60;48.70;;;;;;5003090;28;20187;-71
2022/12/25 06:19:24;;;;;;;2.20;1.47;;;12.70;49.10;;;;;;5017618;28;20255;-74
2022/12/25 06:21:54;;;;;;;3.20;1.63;;;13.10;49.10;;;;;;5029268;28;20419;-71
2022/12/25 06:24:21;;;;;;;2.30;1.30;;;12.60;48.60;;;;;;5027422;28;20671;-71
2022/12/25 06:26:47;;;;;;;2.10;1.30;;;12.10;51.30;;;;;;5029472;28;20533;-71
2022/12/25 06:29:13;;;;;;;2.00;1.10;;;11.70;53.20;;;;;;5023376;28;20459;-71
2022/12/25 06:31:38;;;;;;;2.37;1.33;;;12.10;53.00;;;;;;5031036;28;20183;-71
2022/12/25 06:34:04;;;;;;;2.20;1.33;;;12.20;51.80;;;;;;5031086;28;20177;-71
2022/12/25 06:36:30;;;;;;;2.00;1.10;;;12.30;50.70;;;;;;5030155;28;20176;-71
2022/12/25 06:38:58;;;;;;;1.97;1.10;;;12.50;50.10;;;;;;5029758;28;20226;-73
2022/12/25 06:41:25;;;;;;;2.42;1.40;;;12.60;50.30;;;;;;5029083;28;20173;-73
2022/12/25 06:43:56;;;;;;;2.03;1.15;;;12.30;50.70;;;;;;5031000;28;20184;-71
2022/12/25 06:46:24;;;;;;;2.00;1.20;;;12.30;49.90;;;;;;5029511;28;20188;-73
2022/12/25 06:48:49;;;;;;;3.03;1.77;;;12.30;50.20;;;;;;5032714;28;20447;-71
2022/12/25 06:51:17;;;;;;;2.00;1.20;;;12.40;50.80;;;;;;5032440;28;20430;-71
2022/12/25 06:53:42;;;;;;;2.23;1.40;;;11.90;52.40;;;;;;5031846;28;20621;-71
2022/12/25 06:56:14;;;;;;;1.90;1.00;;;12.00;52.40;;;;;;5033637;28;20490;-72
2022/12/25 06:58:45;;;;;;;2.20;1.30;;;12.30;50.70;;;;;;5029941;28;20212;-73
2022/12/25 07:01:34;;;;;;;2.75;1.45;;;12.80;50.70;;;;;;5032958;28;20921;-71
2022/12/25 07:04:12;;;;;;;2.00;1.10;;;12.60;49.60;;;;;;5029099;28;20245;-71
2022/12/25 07:06:38;;;;;;;2.63;1.20;;;12.40;49.70;;;;;;5028014;28;20925;-72
2022/12/25 07:09:04;;;;;;;2.00;1.20;;;12.10;51.20;;;;;;5027857;28;20443;-73
2022/12/25 07:11:30;;;;;;;2.03;1.27;;;12.30;50.70;;;;;;5034178;28;20207;-71
2022/12/25 07:13:55;;;;;;;1.90;1.10;;;12.70;50.00;;;;;;5028360;28;20184;-71
2022/12/25 07:16:22;;;;;;;2.17;1.37;;;12.80;48.40;;;;;;5034264;28;20502;-71
2022/12/25 07:18:47;;;;;;;1.97;1.13;;;12.80;48.50;;;;;;5030150;28;20216;-72
2022/12/25 07:21:16;;;;;;;2.00;1.10;;;13.00;48.60;;;;;;5032202;28;20450;-71
2022/12/25 07:23:42;;;;;;;2.10;1.20;;;12.90;49.00;;;;;;5034181;28;20546;-71
2022/12/25 07:26:10;;;;;;;2.00;1.20;;;12.80;49.30;;;;;;5025163;28;20467;-71
2022/12/25 07:28:36;;;;;;;2.23;1.47;;;12.60;49.10;;;;;;5030262;28;20447;-72
2022/12/25 07:31:07;;;;;;;2.10;1.30;;;12.70;50.60;;;;;;5030616;28;20865;-71
2022/12/25 07:33:33;;;;;;;2.67;1.50;;;12.60;49.40;;;;;;5033927;28;20694;-71
2022/12/25 07:35:59;;;;;;;2.17;1.20;;;12.60;49.20;;;;;;5034166;28;20981;-71
2022/12/25 07:38:25;;;;;;;2.10;1.20;;;13.10;48.50;;;;;;5031927;28;20462;-71
2022/12/25 07:40:50;;;;;;;2.10;1.30;;;12.70;48.40;;;;;;5027212;28;20189;-71
2022/12/25 07:43:16;;;;;;;2.30;1.40;;;12.70;49.10;;;;;;5032887;28;20180;-71
2022/12/25 07:45:42;;;;;;;2.47;1.70;;;12.80;48.30;;;;;;5033610;28;20196;-71
2022/12/25 07:48:07;;;;;;;2.47;1.83;;;12.80;48.50;;;;;;5032493;28;20319;-72
2022/12/25 07:50:33;;;;;;;4.33;3.10;;;12.80;48.20;;;;;;5030780;28;20184;-71
2022/12/25 07:52:58;;;;;;;2.80;1.57;;;12.90;48.80;;;;;;5031916;28;20188;-71
2022/12/25 07:55:24;;;;;;;2.40;1.40;;;12.80;48.20;;;;;;5024988;28;20189;-72
2022/12/25 07:57:50;;;;;;;2.10;1.30;;;13.20;48.10;;;;;;5026637;28;20755;-72
2022/12/25 08:00:16;;;;;;;2.20;1.70;;;13.00;47.50;;;;;;5033185;28;20187;-72
2022/12/25 08:02:41;;;;;;;2.30;1.27;;;12.60;48.30;;;;;;5033361;28;20200;-72
2022/12/25 08:05:08;;;;;;;1.90;1.10;;;12.90;49.30;;;;;;5033386;28;20485;-71
2022/12/25 08:07:34;;;;;;;1.90;1.10;;;12.40;49.20;;;;;;5028271;28;20232;-72
2022/12/25 08:10:01;;;;;;;1.90;1.10;;;12.40;48.50;;;;;;5030548;28;20467;-72
2022/12/25 08:12:26;;;;;;;2.47;1.60;;;12.60;49.10;;;;;;5027625;28;20473;-71
2022/12/25 08:14:52;;;;;;;3.33;1.90;;;12.70;48.60;;;;;;5027765;28;20438;-71
2022/12/25 08:17:18;;;;;;;2.10;1.30;;;12.60;47.90;;;;;;5030392;28;20245;-71
2022/12/25 08:19:43;;;;;;;2.63;1.43;;;12.80;47.70;;;;;;5032824;28;20439;-71
2022/12/25 08:22:09;;;;;;;2.27;1.40;;;13.10;48.20;;;;;;5032960;28;20184;-71
2022/12/25 08:24:34;;;;;;;1.87;1.10;;;12.80;48.40;;;;;;5032909;28;20200;-71
2022/12/25 08:27:00;;;;;;;2.10;1.30;;;12.50;49.20;;;;;;5030455;28;20215;-71
2022/12/25 08:29:27;;;;;;;2.20;1.50;;;12.40;49.80;;;;;;5030062;28;20192;-74
2022/12/25 08:31:53;;;;;;;2.30;1.40;;;12.40;50.00;;;;;;5032799;28;20176;-77
2022/12/25 08:34:19;;;;;;;1.90;1.20;;;12.60;50.20;;;;;;5029382;28;21180;-77
2022/12/25 08:36:45;;;;;;;2.00;1.30;;;12.10;50.70;;;;;;5031623;28;20447;-77
2022/12/25 08:39:10;;;;;;;2.00;1.10;;;11.80;53.20;;;;;;5027183;28;20262;-77
2022/12/25 08:41:36;;;;;;;2.07;1.20;;;11.40;57.10;;;;;;5032804;28;20670;-72
2022/12/25 08:44:04;;;;;;;2.00;1.20;;;10.90;61.10;;;;;;5032595;28;20195;-71
2022/12/25 08:46:29;;;;;;;2.20;1.30;;;10.60;62.50;;;;;;5032799;28;20652;-72
2022/12/25 08:48:55;;;;;;;2.00;1.20;;;10.80;61.80;;;;;;5030140;28;20500;-74
2022/12/25 08:51:23;;;;;;;3.37;1.80;;;10.80;63.30;;;;;;5031736;28;20188;-74
2022/12/25 08:53:50;;;;;;;2.00;1.20;;;11.10;61.60;;;;;;5032672;28;20974;-72
2022/12/25 08:56:17;;;;;;;2.97;1.50;;;11.50;57.80;;;;;;5031404;28;20489;-73
2022/12/25 08:58:43;;;;;;;2.30;1.50;;;12.10;54.20;;;;;;5030984;28;20868;-72
2022/12/25 09:01:09;;;;;;;2.43;1.63;;;12.10;53.60;;;;;;5026710;28;20462;-72
2022/12/25 09:03:35;;;;;;;2.00;1.10;;;12.10;53.10;;;;;;5029405;28;20439;-72
2022/12/25 09:06:09;;;;;;;2.00;1.20;;;11.90;54.20;;;;;;5032521;28;20512;-73
2022/12/25 09:08:35;;;;;;;2.03;1.10;;;11.20;57.60;;;;;;5032461;28;20203;-73
2022/12/25 09:11:09;;;;;;;2.00;1.13;;;11.50;58.50;;;;;;5025614;28;20423;-72
2022/12/25 09:13:35;;;;;;;2.20;1.13;;;11.50;57.40;;;;;;5024949;28;20993;-72
2022/12/25 09:16:06;;;;;;;2.10;1.10;;;11.30;58.90;;;;;;5031544;28;20275;-72
2022/12/25 09:18:31;;;;;;;2.40;1.47;;;11.00;60.80;;;;;;5031770;28;20204;-73
2022/12/25 09:21:01;;;;;;;2.70;1.30;;;11.40;59.80;;;;;;5030498;28;21191;-73
2022/12/25 09:23:28;;;;;;;2.30;1.40;;;12.40;55.50;;;;;;5030974;28;20191;-75
2022/12/25 09:25:53;;;;;;;2.27;1.27;;;12.10;54.10;;;;;;5025704;28;20459;-73
2022/12/25 09:28:20;;;;;;;2.10;1.20;;;11.30;59.60;;;;;;5032258;28;20435;-73
2022/12/25 09:30:48;;;;;;;4.20;1.97;;;11.10;61.30;;;;;;5028354;28;20220;-76
2022/12/25 09:33:13;;;;;;;4.77;1.57;;;11.10;61.50;;;;;;5025703;28;20431;-76
2022/12/25 09:35:39;;;;;;;3.33;1.97;;;11.00;63.40;;;;;;5031922;28;20422;-74
2022/12/25 09:38:04;;;;;;;2.57;1.40;;;11.00;63.00;;;;;;5029165;28;20276;-76
2022/12/25 09:40:31;;;;;;;2.40;1.40;;;11.00;63.00;;;;;;5032276;28;20168;-80
2022/12/25 09:42:58;;;;;;;3.43;1.93;;;10.60;68.20;;;;;;5024893;28;20319;-77
2022/12/25 09:45:28;;;;;;;3.03;1.87;;;11.00;66.30;;;;;;5031579;28;20448;-79
2022/12/25 09:47:55;;;;;;;2.40;1.27;;;11.70;61.00;;;;;;5031238;28;20443;-76
2022/12/25 09:50:42;;;;;;;2.20;1.10;;;11.90;58.40;;;;;;5031106;28;20578;-79
2022/12/25 09:53:14;;;;;;;2.30;1.30;;;12.40;56.70;;;;;;5020342;28;20451;-77
2022/12/25 09:56:07;;;;;;;2.40;1.33;;;12.80;53.60;;;;;;5023916;28;20430;-78
2022/12/25 09:58:33;;;;;;;2.30;1.20;;;12.70;53.60;;;;;;5013522;28;20957;-77
2022/12/25 10:01:11;;;;;;;2.40;1.20;;;12.80;56.70;;;;;;5030509;28;20508;-77
2022/12/25 10:04:03;;;;;;;2.80;1.40;;;12.00;59.70;;;;;;5021793;28;20438;-74
2022/12/25 10:06:53;;;;;;;2.43;1.20;;;12.00;59.30;;;;;;5019792;28;20424;-77
2022/12/25 10:09:19;;;;;;;2.50;1.30;;;12.70;55.70;;;;;;5029455;28;20458;-79
2022/12/25 10:12:03;;;;;;;2.40;1.10;;;13.40;52.40;;;;;;5020791;28;20436;-73
2022/12/25 10:15:22;;;;;;;2.80;1.40;;;13.60;51.90;;;;;;5026753;28;20172;-77
2022/12/25 10:18:06;;;;;;;2.60;1.30;;;13.40;51.70;;;;;;4994168;28;20838;-75
2022/12/25 10:20:52;;;;;;;2.57;1.20;;;13.50;51.80;;;;;;4985144;28;20477;-75
2022/12/25 10:23:31;;;;;;;2.70;1.30;;;13.60;52.60;;;;;;4990962;28;20440;-73
2022/12/25 10:25:57;;;;;;;2.70;1.30;;;12.50;56.60;;;;;;4978322;28;20492;-73
2022/12/25 10:28:28;;;;;;;2.63;1.20;;;13.10;56.40;;;;;;4981487;28;20464;-71
2022/12/25 10:30:57;;;;;;;2.80;1.30;;;13.50;54.60;;;;;;5008621;28;20174;-71
2022/12/25 10:33:23;;;;;;;2.90;1.30;;;13.40;53.50;;;;;;4982512;28;20442;-71
2022/12/25 10:35:48;;;;;;;2.90;1.30;;;13.30;53.60;;;;;;4994404;28;20452;-71
2022/12/25 10:38:17;;;;;;;6.23;1.50;;;13.20;53.20;;;;;;5002330;28;20214;-73
2022/12/25 10:41:09;;;;;;;2.87;1.20;;;13.60;53.70;;;;;;4984683;28;20193;-75
2022/12/25 10:43:44;;;;;;;3.00;1.50;;;13.30;53.10;;;;;;4973935;28;20403;-72
2022/12/25 10:46:12;;;;;;;2.80;1.20;;;13.70;53.40;;;;;;4995375;28;20460;-72
2022/12/25 10:48:51;;;;;;;3.10;1.33;;;13.40;53.40;;;;;;4999453;28;20585;-72
2022/12/25 10:51:31;;;;;;;2.87;1.07;;;13.80;52.10;;;;;;5005013;28;21072;-72
2022/12/25 10:53:56;;;;;;;3.00;1.20;;;14.10;51.30;;;;;;5034775;28;20412;-73
2022/12/25 10:56:22;;;;;;;3.00;1.23;;;13.70;51.40;;;;;;5030830;28;20441;-75
2022/12/25 10:58:48;;;;;;;3.00;1.30;;;13.90;51.00;;;;;;5034122;28;20997;-72
2022/12/25 11:01:14;;;;;;;3.00;1.30;;;14.20;49.90;;;;;;5032026;28;20258;-76
2022/12/25 11:03:44;;;;;;;3.00;1.30;;;14.70;48.10;;;;;;5034699;28;20181;-72
2022/12/25 11:06:24;;;;;;;3.10;1.20;;;14.70;47.40;;;;;;5032316;28;20509;-72
2022/12/25 11:08:55;;;;;;;3.00;1.30;;;14.90;46.80;;;;;;5029117;28;20453;-71
2022/12/25 11:11:21;;;;;;;3.00;1.30;;;14.80;47.10;;;;;;5031788;28;20427;-74
2022/12/25 11:13:58;;;;;;;2.97;1.33;;;14.70;47.60;;;;;;5026949;28;20412;-73
2022/12/25 11:16:36;;;;;;;3.00;1.30;;;14.80;47.40;;;;;;5014114;28;20414;-72
2022/12/25 11:19:02;;;;;;;2.90;1.20;;;14.90;46.80;;;;;;5028139;28;20469;-73
2022/12/25 11:21:36;;;;;;;3.20;1.50;;;15.60;44.00;;;;;;5028436;28;20495;-73
2022/12/25 11:24:04;;;;;;;3.10;1.30;;;14.80;46.60;;;;;;5033252;28;20453;-72
2022/12/25 11:26:47;;;;;;;2.97;1.33;;;15.00;46.90;;;;;;5021470;28;20468;-72
2022/12/25 11:29:29;;;;;;;4.30;2.03;;;15.60;44.50;;;;;;5028724;28;20478;-76
2022/12/25 11:31:59;;;;;;;3.40;1.43;;;16.20;45.00;;;;;;5032031;28;20841;-75
2022/12/25 11:34:32;;;;;;;3.20;1.50;;;16.80;41.90;;;;;;5030671;28;20781;-74
2022/12/25 11:37:00;;;;;;;2.80;1.20;;;17.10;40.70;;;;;;5029753;28;20429;-72
2022/12/25 11:39:30;;;;;;;3.00;1.30;;;16.90;40.80;;;;;;5028967;28;20421;-72
2022/12/25 11:42:23;;;;;;;2.90;1.30;;;16.90;41.30;;;;;;5033664;28;20501;-73
2022/12/25 11:44:59;;;;;;;3.00;1.30;;;17.00;40.80;;;;;;5014257;28;20509;-73
2022/12/25 11:47:39;;;;;;;3.10;1.50;;;17.00;41.50;;;;;;5032755;28;20453;-73
2022/12/25 11:50:19;;;;;;;3.40;1.50;;;16.70;40.90;;;;;;5024436;28;21084;-72
2022/12/25 11:52:47;;;;;;;3.30;1.53;;;16.40;42.40;;;;;;5038140;28;20407;-72
2022/12/25 11:55:41;;;;;;;3.13;1.57;;;17.10;41.50;;;;;;5045370;28;20414;-72
2022/12/25 11:58:19;;;;;;;3.70;1.70;;;17.60;39.50;;;;;;5041680;28;21083;-73
2022/12/25 12:00:47;;;;;;;2.93;1.20;;;18.30;37.30;;;;;;5025521;28;20435;-72
2022/12/25 12:03:20;;;;;;;3.20;1.40;;;18.50;37.40;;;;;;5033098;28;20504;-72
2022/12/25 12:05:52;;;;;;;3.10;1.40;;;18.70;36.50;;;;;;5032913;28;20971;-77
2022/12/25 12:08:18;;;;;;;3.40;1.43;;;19.10;36.10;;;;;;5029670;28;20812;-72
2022/12/25 12:11:26;;;;;;;3.20;1.33;;;19.40;34.90;;;;;;5032241;28;20440;-78
2022/12/25 12:14:22;;;;;;;4.90;1.90;;;19.70;35.80;;;;;;5032919;28;20449;-72
2022/12/25 12:16:47;;;;;;;3.50;1.53;;;19.20;35.40;;;;;;5033138;28;20425;-72
2022/12/25 12:19:29;;;;;;;3.63;1.60;;;19.20;36.50;;;;;;5032426;28;20454;-74
2022/12/25 12:21:57;;;;;;;4.10;1.90;;;19.10;36.90;;;;;;5032219;28;20233;-72
2022/12/25 12:24:28;;;;;;;3.20;1.10;;;19.40;33.80;;;;;;5032844;28;20419;-72
2022/12/25 12:27:12;;;;;;;3.30;1.23;;;19.60;33.60;;;;;;5033239;28;20414;-72
2022/12/25 12:29:44;;;;;;;4.23;1.83;;;19.90;32.70;;;;;;5013450;28;20408;-71
2022/12/25 12:32:39;;;;;;;3.23;1.20;;;19.30;33.60;;;;;;5030318;28;20427;-71
2022/12/25 12:35:33;;;;;;;3.40;1.30;;;19.30;34.70;;;;;;5033812;28;20798;-73
2022/12/25 12:38:06;;;;;;;3.40;1.23;;;20.00;32.30;;;;;;5033675;28;20436;-72
2022/12/25 12:40:36;;;;;;;3.37;1.30;;;20.20;32.30;;;;;;5033178;28;20438;-72
2022/12/25 12:43:05;;;;;;;3.30;1.20;;;19.60;33.90;;;;;;5023172;28;20427;-72
2022/12/25 12:45:35;;;;;;;4.73;1.80;;;19.40;33.70;;;;;;5024370;28;20465;-74
2022/12/25 12:48:12;;;;;;;3.30;1.30;;;19.80;32.70;;;;;;5032242;28;20919;-73
2022/12/25 12:50:39;;;;;;;3.20;1.20;;;20.40;31.20;;;;;;5032639;28;20508;-72
2022/12/25 12:53:35;;;;;;;4.00;1.60;;;20.70;30.80;;;;;;5030807;28;21002;-75
2022/12/25 12:56:16;;;;;;;3.27;1.33;;;20.90;29.50;;;;;;5020249;28;20427;-72
2022/12/25 12:58:51;;;;;;;3.20;1.30;;;20.90;30.80;;;;;;5032179;28;20428;-72
2022/12/25 13:01:25;;;;;;;3.20;1.20;;;20.80;31.40;;;;;;5031029;28;20514;-72
2022/12/25 13:04:35;;;;;;;3.70;1.40;;;20.50;31.20;;;;;;5022267;28;20803;-71
2022/12/25 13:07:42;;;;;;;3.60;1.40;;;19.60;31.90;;;;;;5020025;28;20931;-72
2022/12/25 13:10:23;;;;;;;3.70;1.30;;;19.10;32.80;;;;;;5029209;28;20442;-72
2022/12/25 13:13:25;;;;;;;3.80;1.20;;;19.30;32.70;;;;;;5029713;28;20427;-72
2022/12/25 13:15:51;;;;;;;4.00;1.20;;;19.40;32.70;;;;;;5025831;28;20442;-72
2022/12/25 13:18:17;;;;;;;4.07;1.20;;;19.60;31.60;;;;;;5030561;28;20461;-72
2022/12/25 13:20:53;;;;;;;4.10;1.20;;;19.40;31.60;;;;;;5031786;28;20441;-76
2022/12/25 13:23:22;;;;;;;6.33;1.77;;;19.10;33.40;;;;;;5030808;28;21124;-72
2022/12/25 13:25:52;;;;;;;4.07;1.10;;;19.40;32.40;;;;;;5029824;28;20545;-71
2022/12/25 13:28:24;;;;;;;4.30;1.40;;;18.90;33.00;;;;;;5027745;28;22112;-75
2022/12/25 13:30:49;;;;;;;4.10;1.20;;;19.00;32.10;;;;;;5031014;28;20426;-71
2022/12/25 13:33:18;;;;;;;7.20;1.60;;;18.60;34.40;;;;;;5030876;28;20782;-72
2022/12/25 13:35:44;;;;;;;4.10;1.20;;;18.90;33.50;;;;;;5030057;28;20203;-72
2022/12/25 13:38:19;;;;;;;4.07;1.20;;;19.60;31.40;;;;;;5029036;28;20465;-72
2022/12/25 13:43:39;;;;;;;4.03;1.30;;;20.10;29.60;;;;;;5028098;28;20500;-70
2022/12/25 13:46:05;;;;;;;3.93;1.30;;;20.10;30.20;;;;;;5030306;28;20446;-72
2022/12/25 13:48:31;;;;;;;4.00;1.30;;;20.10;30.40;;;;;;5029157;28;20569;-73
2022/12/25 13:50:59;;;;;;;7.40;1.73;;;19.70;31.50;;;;;;5031427;28;20548;-75
2022/12/25 13:53:24;;;;;;;4.20;1.30;;;19.10;33.20;;;;;;5031409;28;20509;-71
2022/12/25 13:55:53;;;;;;;4.23;1.30;;;19.10;31.10;;;;;;5027862;28;20526;-71
2022/12/25 13:58:30;;;;;;;4.30;1.30;;;19.40;30.90;;;;;;5031138;28;20208;-72
2022/12/25 14:00:58;;;;;;;4.40;1.30;;;19.20;31.30;;;;;;5030539;28;20500;-71
2022/12/25 14:03:42;;;;;;;4.30;1.30;;;19.30;30.90;;;;;;5031533;28;20440;-76
2022/12/25 14:06:20;;;;;;;4.17;1.20;;;19.00;31.20;;;;;;5028228;28;20488;-71
2022/12/25 14:08:47;;;;;;;4.20;1.20;;;18.50;32.90;;;;;;5024055;28;21070;-71
2022/12/25 14:11:16;;;;;;;4.23;1.30;;;18.80;32.90;;;;;;5031758;28;20425;-71
2022/12/25 14:13:44;;;;;;;4.70;1.60;;;18.90;33.70;;;;;;5030259;28;20935;-71
2022/12/25 14:16:10;;;;;;;4.47;1.50;;;18.50;32.10;;;;;;5028265;28;20438;-73
2022/12/25 14:18:36;;;;;;;4.20;1.30;;;18.70;32.60;;;;;;5028609;28;20465;-73
2022/12/25 14:21:06;;;;;;;4.20;1.30;;;18.30;32.70;;;;;;5030120;28;20429;-73
2022/12/25 14:23:44;;;;;;;4.20;1.47;;;17.70;34.50;;;;;;5025665;28;20467;-76
2022/12/25 14:26:19;;;;;;;4.27;1.40;;;17.90;34.00;;;;;;5029600;28;20468;-71
2022/12/25 14:28:54;;;;;;;4.10;1.23;;;18.00;33.60;;;;;;5027516;28;20448;-71
2022/12/25 14:31:20;;;;;;;4.10;1.30;;;17.80;34.00;;;;;;5028154;28;20442;-71
2022/12/25 14:33:47;;;;;;;4.10;1.30;;;17.80;32.70;;;;;;5029465;28;20431;-72
2022/12/25 14:36:14;;;;;;;3.97;1.20;;;18.10;32.80;;;;;;5029956;28;20447;-71
2022/12/25 14:38:41;;;;;;;4.40;1.50;;;18.30;33.40;;;;;;5028628;28;20830;-78
2022/12/25 14:41:18;;;;;;;3.90;1.20;;;18.10;32.30;;;;;;5029124;28;20438;-71
2022/12/25 14:43:54;;;;;;;3.90;1.20;;;18.30;31.70;;;;;;5029358;28;21028;-71
2022/12/25 14:46:25;;;;;;;3.97;1.30;;;18.30;32.20;;;;;;5030827;28;20500;-71
2022/12/25 14:49:03;;;;;;;4.10;1.30;;;18.20;32.70;;;;;;5029499;28;20447;-71
2022/12/25 14:51:30;;;;;;;3.87;1.20;;;18.20;31.60;;;;;;5022882;28;20403;-73
2022/12/25 14:53:59;;;;;;;4.00;1.20;;;18.00;32.20;;;;;;5030890;28;20397;-71
2022/12/25 14:56:26;;;;;;;3.90;1.40;;;18.10;31.90;;;;;;5029662;28;20416;-74